createdAt,value
2023-03-26T00:02:03.341Z,99702.06
2023-03-26T00:04:33.646Z,99697.41
2023-03-26T00:07:03.820Z,99705.31
2023-03-26T00:09:33.125Z,99706.84
2023-03-26T00:12:00.831Z,99707.66
2023-03-26T00:14:30.004Z,99708.63
2023-03-26T00:16:57.818Z,99708.19
2023-03-26T00:19:25.506Z,99703.44
2023-03-26T00:21:53.378Z,99709.84
2023-03-26T00:24:21.124Z,99721.75
2023-03-26T00:26:53.470Z,99712.88
2023-03-26T00:29:22.949Z,99720.38
2023-03-26T00:31:50.808Z,99727.38
2023-03-26T00:34:19.324Z,99728.00
2023-03-26T00:36:47.993Z,99713.41
2023-03-26T00:39:17.843Z,99722.13
2023-03-26T00:41:45.726Z,99726.97
2023-03-26T00:44:14.850Z,99717.25
2023-03-26T00:46:42.904Z,99720.00
2023-03-26T00:49:14.804Z,99715.13
2023-03-26T00:51:43.090Z,99723.56
2023-03-26T00:54:11.084Z,99716.22
2023-03-26T00:56:39.012Z,99703.69
2023-03-26T00:59:06.881Z,99717.63
2023-03-26T01:01:36.716Z,99701.63
2023-03-26T01:04:27.367Z,99702.38
2023-03-26T01:06:56.634Z,99703.19
2023-03-26T01:09:30.642Z,99708.50
2023-03-26T01:11:58.423Z,99712.75
2023-03-26T01:14:26.866Z,99700.84
2023-03-26T01:16:58.325Z,99695.88
2023-03-26T01:19:37.992Z,99687.34
2023-03-26T01:22:06.644Z,99686.19
2023-03-26T01:24:36.116Z,99684.47
2023-03-26T01:27:13.440Z,99695.75
2023-03-26T01:29:45.068Z,99687.28
2023-03-26T01:32:26.054Z,99684.66
2023-03-26T01:35:02.880Z,99681.69
2023-03-26T01:37:36.050Z,99673.94
2023-03-26T01:40:08.490Z,99690.59
2023-03-26T01:42:39.070Z,99680.63
2023-03-26T01:45:11.675Z,99677.53
2023-03-26T01:47:41.148Z,99686.03
2023-03-26T01:50:10.023Z,99679.31
2023-03-26T01:52:38.066Z,99664.28
2023-03-26T01:55:11.715Z,99670.34
2023-03-26T01:57:49.664Z,99666.72
2023-03-26T02:00:22.655Z,99659.66
2023-03-26T02:03:00.445Z,99667.13
2023-03-26T02:05:31.905Z,99656.03
2023-03-26T02:08:02.261Z,99645.28
2023-03-26T02:10:32.669Z,99641.31
2023-03-26T02:13:00.893Z,99642.56
2023-03-26T02:15:28.800Z,99640.53
2023-03-26T02:17:56.500Z,99629.44
2023-03-26T02:20:24.241Z,99638.25
2023-03-26T02:22:51.866Z,99644.28
2023-03-26T02:25:21.578Z,99634.78
2023-03-26T02:27:52.045Z,99634.91
2023-03-26T02:30:25.587Z,99626.59
2023-03-26T02:32:54.517Z,99618.78
2023-03-26T02:35:23.224Z,99619.38
2023-03-26T02:37:51.127Z,99611.16
2023-03-26T02:40:21.226Z,99610.50
2023-03-26T02:42:50.384Z,99602.63
2023-03-26T02:45:18.461Z,99599.88
2023-03-26T02:47:46.282Z,99602.50
2023-03-26T02:50:14.606Z,99606.09
2023-03-26T02:52:43.087Z,99606.78
2023-03-26T02:55:10.936Z,99606.16
2023-03-26T02:57:38.906Z,99607.03
2023-03-26T03:00:15.961Z,99605.22
2023-03-26T03:02:48.229Z,99590.78
2023-03-26T03:05:18.063Z,99596.81
2023-03-26T03:07:46.649Z,99597.47
2023-03-26T03:10:15.574Z,99588.13
2023-03-26T03:12:43.597Z,99599.22
2023-03-26T03:15:13.988Z,99586.28
2023-03-26T03:17:41.750Z,99587.53
2023-03-26T03:20:10.865Z,99588.22
2023-03-26T03:22:38.819Z,99583.00
2023-03-26T03:25:09.021Z,99596.72
2023-03-26T03:27:39.329Z,99594.44
2023-03-26T03:30:08.463Z,99590.00
2023-03-26T03:32:37.564Z,99583.03
2023-03-26T03:35:06.593Z,99587.22
2023-03-26T03:37:34.286Z,99586.50
2023-03-26T03:40:01.966Z,99593.41
2023-03-26T03:42:29.633Z,99588.13
2023-03-26T03:44:57.285Z,99577.00
2023-03-26T03:47:25.064Z,99577.47
2023-03-26T03:49:54.141Z,99565.09
2023-03-26T03:52:21.862Z,99563.31
2023-03-26T03:54:49.569Z,99560.44
2023-03-26T04:00:41.691Z,99547.72
2023-03-26T04:03:10.254Z,99552.41
2023-03-26T04:05:40.647Z,99555.75
2023-03-26T04:08:08.372Z,99544.19
2023-03-26T04:10:36.080Z,99538.72
2023-03-26T04:13:04.048Z,99544.47
2023-03-26T04:15:31.719Z,99540.63
2023-03-26T04:17:59.424Z,99543.94
2023-03-26T04:20:27.088Z,99546.00
2023-03-26T04:22:56.324Z,99534.50
2023-03-26T04:25:30.632Z,99544.28
2023-03-26T04:28:01.389Z,99538.66
2023-03-26T04:30:29.073Z,99535.97
2023-03-26T04:32:58.479Z,99522.97
2023-03-26T04:35:26.367Z,99526.16
2023-03-26T04:37:54.872Z,99526.94
2023-03-26T04:40:24.142Z,99529.91
2023-03-26T04:42:54.611Z,99520.00
2023-03-26T04:45:23.261Z,99524.19
2023-03-26T04:47:51.208Z,99526.09
2023-03-26T04:50:19.088Z,99528.16
2023-03-26T04:52:46.880Z,99527.44
2023-03-26T04:55:20.882Z,99518.03
2023-03-26T04:57:51.544Z,99516.84
2023-03-26T05:00:20.232Z,99520.97
2023-03-26T05:02:50.558Z,99511.84
2023-03-26T05:05:18.982Z,99520.47
2023-03-26T05:07:46.710Z,99504.91
2023-03-26T05:10:16.170Z,99505.09
2023-03-26T05:12:44.338Z,99505.19
2023-03-26T05:15:14.230Z,99504.28
2023-03-26T05:17:42.592Z,99504.72
2023-03-26T05:20:17.484Z,99496.72
2023-03-26T05:22:45.596Z,99487.38
2023-03-26T05:25:13.437Z,99484.66
2023-03-26T05:27:41.178Z,99480.22
2023-03-26T05:30:09.934Z,99468.78
2023-03-26T05:32:39.123Z,99460.41
2023-03-26T05:35:08.072Z,99475.16
2023-03-26T05:37:35.883Z,99475.34
2023-03-26T05:40:04.187Z,99469.47
2023-03-26T05:42:31.913Z,99461.81
2023-03-26T05:44:59.573Z,99466.28
2023-03-26T05:47:27.835Z,99459.97
2023-03-26T05:49:56.946Z,99450.22
2023-03-26T05:52:27.469Z,99451.06
2023-03-26T05:54:55.282Z,99455.84
2023-03-26T05:57:23.945Z,99445.69
2023-03-26T05:59:51.660Z,99444.78
2023-03-26T06:02:19.329Z,99445.53
2023-03-26T06:04:47.208Z,99455.00
2023-03-26T06:07:16.851Z,99432.41
2023-03-26T06:09:44.962Z,99433.56
2023-03-26T06:12:27.026Z,99428.06
2023-03-26T06:14:54.751Z,99425.50
2023-03-26T06:17:22.501Z,99409.94
2023-03-26T06:19:50.225Z,99422.25
2023-03-26T06:22:19.302Z,99412.16
2023-03-26T06:24:46.955Z,99414.22
2023-03-26T06:27:14.684Z,99403.47
2023-03-26T06:29:42.352Z,99412.38
2023-03-26T06:32:19.511Z,99399.50
2023-03-26T06:34:48.391Z,99394.16
2023-03-26T06:37:16.248Z,99395.50
2023-03-26T06:39:46.013Z,99396.28
2023-03-26T06:42:13.984Z,99404.59
2023-03-26T06:44:41.668Z,99393.03
2023-03-26T06:47:09.385Z,99407.88
2023-03-26T06:49:38.223Z,99407.34
2023-03-26T06:52:06.482Z,99400.06
2023-03-26T06:54:34.211Z,99412.22
2023-03-26T06:57:06.113Z,99409.97
2023-03-26T06:59:33.809Z,99406.00
2023-03-26T07:02:01.490Z,99388.47
2023-03-26T07:04:29.372Z,99393.28
2023-03-26T07:06:57.108Z,99385.25
2023-03-26T07:09:26.246Z,99397.09
2023-03-26T07:11:53.914Z,99397.63
2023-03-26T07:14:24.502Z,99398.94
2023-03-26T07:16:52.508Z,99387.88
2023-03-26T07:19:20.284Z,99378.53
2023-03-26T07:21:48.725Z,99381.34
2023-03-26T07:24:17.258Z,99392.81
2023-03-26T07:26:51.492Z,99386.31
2023-03-26T07:29:25.459Z,99374.38
2023-03-26T07:31:56.238Z,99368.00
2023-03-26T07:34:38.534Z,99377.53
2023-03-26T07:37:13.899Z,99378.31
2023-03-26T07:39:46.247Z,99374.78
2023-03-26T07:42:22.722Z,99370.44
2023-03-26T07:44:58.413Z,99374.34
2023-03-26T07:47:31.572Z,99364.53
2023-03-26T07:49:59.812Z,99370.63
2023-03-26T07:52:28.346Z,99354.94
2023-03-26T07:54:56.765Z,99358.09
2023-03-26T07:57:34.169Z,99354.00
2023-03-26T08:00:11.785Z,99345.69
2023-03-26T08:02:54.506Z,99344.50
2023-03-26T08:05:26.227Z,99336.31
2023-03-26T08:07:59.821Z,99364.00
2023-03-26T08:10:28.439Z,99355.84
2023-03-26T08:13:00.052Z,99354.78
2023-03-26T08:15:32.553Z,99339.69
2023-03-26T08:18:06.400Z,99339.63
2023-03-26T08:20:41.511Z,99343.03
2023-03-26T08:23:14.924Z,99340.59
2023-03-26T08:25:49.946Z,99336.78
2023-03-26T08:28:37.881Z,99353.44
2023-03-26T08:31:09.227Z,99341.53
2023-03-26T08:33:38.390Z,99337.34
2023-03-26T08:36:06.841Z,99336.69
2023-03-26T08:38:34.590Z,99333.31
2023-03-26T08:41:25.180Z,99321.53
2023-03-26T08:44:07.636Z,99330.19
2023-03-26T08:46:55.252Z,99334.97
2023-03-26T08:49:43.943Z,99326.06
2023-03-26T08:52:36.967Z,99333.72
2023-03-26T08:55:27.769Z,99319.78
2023-03-26T08:58:21.525Z,99321.34
2023-03-26T09:01:13.909Z,99308.97
2023-03-26T09:03:59.627Z,99315.19
2023-03-26T09:06:46.312Z,99329.88
2023-03-26T09:09:40.862Z,99317.94
2023-03-26T09:12:32.790Z,99328.47
2023-03-26T09:15:29.556Z,99314.13
2023-03-26T09:18:15.941Z,99312.88
2023-03-26T09:20:58.355Z,99309.75
2023-03-26T09:23:41.964Z,99325.06
2023-03-26T09:26:24.917Z,99313.34
2023-03-26T09:29:17.218Z,99302.72
2023-03-26T09:32:02.482Z,99322.97
2023-03-26T09:34:31.973Z,99315.38
2023-03-26T09:37:19.445Z,99318.91
2023-03-26T09:39:59.851Z,99316.69
2023-03-26T09:42:38.805Z,99308.91
2023-03-26T09:45:21.075Z,99316.19
2023-03-26T09:48:10.019Z,99318.59
2023-03-26T09:50:53.259Z,99307.03
2023-03-26T09:53:36.765Z,99299.59
2023-03-26T09:56:14.110Z,99302.31
2023-03-26T09:58:59.993Z,99312.44
2023-03-26T10:01:35.032Z,99309.88
2023-03-26T10:04:26.890Z,99312.03
2023-03-26T10:07:00.769Z,99295.84
2023-03-26T10:09:43.970Z,99314.53
2023-03-26T10:12:20.626Z,99298.91
2023-03-26T10:14:58.599Z,99306.97
2023-03-26T10:17:35.794Z,99312.41
2023-03-26T10:20:17.740Z,99306.78
2023-03-26T10:22:53.218Z,99312.25
2023-03-26T10:25:32.714Z,99313.41
2023-03-26T10:28:11.397Z,99307.63
2023-03-26T10:30:54.578Z,99305.03
2023-03-26T10:33:29.375Z,99300.38
2023-03-26T10:36:17.088Z,99300.94
2023-03-26T10:38:58.492Z,99302.66
2023-03-26T10:41:31.855Z,99297.72
2023-03-26T10:44:19.676Z,99297.06
2023-03-26T10:47:01.413Z,99288.25
2023-03-26T10:49:42.493Z,99309.69
2023-03-26T10:52:15.962Z,99304.22
2023-03-26T10:54:52.695Z,99308.06
2023-03-26T10:57:30.294Z,99306.22
2023-03-26T10:59:59.532Z,99292.16
2023-03-26T11:02:30.936Z,99302.44
2023-03-26T11:05:09.855Z,99297.16
2023-03-26T11:07:41.218Z,99289.34
2023-03-26T11:10:11.347Z,99294.84
2023-03-26T11:12:44.336Z,99296.41
2023-03-26T11:15:21.101Z,99297.66
2023-03-26T11:17:56.917Z,99304.31
2023-03-26T11:20:29.537Z,99295.47
2023-03-26T11:23:08.887Z,99298.75
2023-03-26T11:25:46.740Z,99307.59
2023-03-26T11:28:29.395Z,99304.91
2023-03-26T11:31:02.592Z,99289.38
2023-03-26T11:33:33.853Z,99303.72
2023-03-26T11:36:04.216Z,99307.59
2023-03-26T11:38:37.486Z,99299.47
2023-03-26T11:41:11.965Z,99296.16
2023-03-26T11:43:41.289Z,99294.56
2023-03-26T11:46:11.454Z,99294.91
2023-03-26T11:48:41.955Z,99295.19
2023-03-26T11:51:12.414Z,99305.78
2023-03-26T11:53:40.740Z,99304.84
2023-03-26T11:56:15.115Z,99306.25
2023-03-26T11:58:49.409Z,99291.28
2023-03-26T12:01:19.194Z,99289.75
2023-03-26T12:03:57.305Z,99298.81
2023-03-26T12:06:28.901Z,99282.91
2023-03-26T12:08:57.746Z,99307.59
2023-03-26T12:11:28.225Z,99301.66
2023-03-26T12:14:01.189Z,99286.09
2023-03-26T12:16:29.275Z,99285.97
2023-03-26T12:19:01.849Z,99290.84
2023-03-26T12:21:29.487Z,99296.63
2023-03-26T12:23:59.946Z,99291.25
2023-03-26T12:26:39.608Z,99295.13
2023-03-26T12:29:14.005Z,99301.69
2023-03-26T12:31:53.222Z,99298.66
2023-03-26T12:34:22.459Z,99294.63
2023-03-26T12:36:52.837Z,99299.75
2023-03-26T12:40:08.661Z,99297.88
2023-03-26T12:44:44.404Z,99302.13
2023-03-26T12:45:17.048Z,99301.69
2023-03-26T12:48:00.604Z,99295.69
2023-03-26T12:50:46.311Z,99303.78
2023-03-26T12:53:34.587Z,99294.63
2023-03-26T12:56:04.466Z,99292.47
2023-03-26T12:58:51.457Z,99293.81
2023-03-26T13:01:29.673Z,99301.13
2023-03-26T13:04:09.648Z,99298.69
2023-03-26T13:06:59.418Z,99296.28
2023-03-26T13:09:43.930Z,99313.78
2023-03-26T13:12:20.184Z,99303.25
2023-03-26T13:14:57.647Z,99296.22
2023-03-26T13:17:31.666Z,99300.56
2023-03-26T13:20:07.167Z,99314.63
2023-03-26T13:22:44.117Z,99312.19
2023-03-26T13:25:21.848Z,99312.47
2023-03-26T13:27:56.927Z,99301.66
2023-03-26T13:30:32.359Z,99308.41
2023-03-26T13:33:09.008Z,99303.56
2023-03-26T13:35:40.753Z,99306.78
2023-03-26T13:38:14.397Z,99310.81
2023-03-26T13:40:48.769Z,99313.50
2023-03-26T13:43:42.195Z,99309.66
2023-03-26T13:46:16.561Z,99320.00
2023-03-26T13:48:50.091Z,99294.63
2023-03-26T13:51:19.920Z,99312.47
2023-03-26T13:53:53.317Z,99308.41
2023-03-26T13:56:26.494Z,99313.75
2023-03-26T13:59:00.450Z,99317.81
2023-03-26T14:01:33.964Z,99308.25
2023-03-26T14:06:46.935Z,99323.06
2023-03-26T14:09:19.080Z,99328.44
2023-03-26T14:11:57.828Z,99331.13
2023-03-26T14:14:32.662Z,99336.66
2023-03-26T14:17:03.953Z,99333.75
2023-03-26T14:20:11.023Z,99328.53
2023-03-26T14:22:48.440Z,99338.03
2023-03-26T14:25:23.799Z,99329.47
2023-03-26T14:28:02.098Z,99338.56
2023-03-26T14:30:42.557Z,99340.09
2023-03-26T14:33:28.071Z,99339.19
2023-03-26T14:36:01.319Z,99330.00
2023-03-26T14:39:09.608Z,99342.97
2023-03-26T14:41:43.335Z,99355.03
2023-03-26T14:44:49.713Z,99344.91
2023-03-26T14:47:19.472Z,99350.69
2023-03-26T14:50:10.503Z,99345.25
2023-03-26T14:52:47.372Z,99335.97
2023-03-26T14:55:29.379Z,99345.56
2023-03-26T14:58:04.967Z,99350.94
2023-03-26T15:01:06.670Z,99360.50
2023-03-26T15:04:07.964Z,99351.91
2023-03-26T15:07:10.602Z,99358.34
2023-03-26T15:10:17.902Z,99372.00
2023-03-26T15:13:03.451Z,99366.09
2023-03-26T15:16:14.189Z,99359.69
2023-03-26T15:19:06.368Z,99363.84
2023-03-26T15:21:51.164Z,99375.59
2023-03-26T15:24:53.148Z,99371.75
2023-03-26T15:28:00.161Z,99368.09
2023-03-26T15:30:57.945Z,99376.00
2023-03-26T15:33:46.847Z,99387.84
2023-03-26T15:36:28.945Z,99389.22
2023-03-26T15:39:58.715Z,99389.75
2023-03-26T15:42:32.666Z,99389.63
2023-03-26T15:45:17.379Z,99402.00
2023-03-26T15:47:57.518Z,99401.53
2023-03-26T15:50:38.007Z,99400.69
2023-03-26T15:53:18.554Z,99410.06
2023-03-26T15:56:00.484Z,99418.63
2023-03-26T15:58:32.043Z,99418.31
2023-03-26T16:01:19.106Z,99420.97
2023-03-26T16:03:54.368Z,99422.78
2023-03-26T16:06:41.369Z,99422.22
2023-03-26T16:09:20.270Z,99422.78
2023-03-26T16:11:54.988Z,99416.63
2023-03-26T16:14:24.458Z,99438.63
2023-03-26T16:16:59.238Z,99424.94
2023-03-26T16:19:36.251Z,99450.44
2023-03-26T16:22:05.832Z,99458.53
2023-03-26T16:24:36.101Z,99461.59
2023-03-26T16:27:32.083Z,99451.22
2023-03-26T16:30:20.199Z,99452.00
2023-03-26T16:32:56.313Z,99456.16
2023-03-26T16:35:39.920Z,99459.53
2023-03-26T16:38:13.441Z,99465.97
2023-03-26T16:40:56.329Z,99466.06
2023-03-26T16:43:41.472Z,99479.00
2023-03-26T16:46:12.363Z,99490.91
2023-03-26T16:48:55.019Z,99475.00
2023-03-26T16:51:27.398Z,99483.13
2023-03-26T16:54:00.296Z,99486.53
2023-03-26T16:56:32.259Z,99497.28
2023-03-26T16:59:02.355Z,99503.97
2023-03-26T17:01:37.129Z,99501.34
2023-03-26T17:04:11.694Z,99512.91
2023-03-26T17:07:02.255Z,99517.16
2023-03-26T17:09:37.771Z,99518.31
2023-03-26T17:12:14.239Z,99524.81
2023-03-26T17:14:51.607Z,99529.03
2023-03-26T17:17:29.523Z,99529.72
2023-03-26T17:20:04.007Z,99533.50
2023-03-26T17:22:39.127Z,99540.91
2023-03-26T17:25:18.538Z,99550.81
2023-03-26T17:27:50.124Z,99562.28
2023-03-26T17:30:34.555Z,99562.00
2023-03-26T17:33:13.366Z,99559.03
2023-03-26T17:35:45.181Z,99586.81
2023-03-26T17:38:51.320Z,99569.75
2023-03-26T17:41:50.415Z,99581.69
2023-03-26T17:44:44.247Z,99579.94
2023-03-26T17:47:19.689Z,99594.63
2023-03-26T17:49:48.518Z,99596.16
2023-03-26T17:52:22.317Z,99610.47
2023-03-26T17:54:52.085Z,99605.09
2023-03-26T17:57:24.117Z,99614.38
2023-03-26T17:59:56.607Z,99619.34
2023-03-26T18:02:33.132Z,99610.03
2023-03-26T18:05:01.833Z,99625.47
2023-03-26T18:07:54.392Z,99637.03
2023-03-26T18:10:35.119Z,99642.66
2023-03-26T18:13:17.077Z,99634.34
2023-03-26T18:15:50.658Z,99645.16
2023-03-26T18:18:20.762Z,99671.16
2023-03-26T18:20:49.917Z,99664.72
2023-03-26T18:23:28.143Z,99676.22
2023-03-26T18:25:59.770Z,99678.53
2023-03-26T18:28:32.719Z,99681.66
2023-03-26T18:31:09.984Z,99675.34
2023-03-26T18:33:44.841Z,99690.28
2023-03-26T18:36:13.481Z,99687.22
2023-03-26T18:38:45.495Z,99696.88
2023-03-26T18:41:20.512Z,99719.63
2023-03-26T18:43:48.718Z,99712.09
2023-03-26T18:46:17.073Z,99715.19
2023-03-26T18:48:45.222Z,99731.50
2023-03-26T18:51:13.356Z,99746.41
2023-03-26T18:53:47.562Z,99735.44
2023-03-26T18:56:29.069Z,99748.31
2023-03-26T18:58:59.213Z,99749.88
2023-03-26T19:01:30.739Z,99751.13
2023-03-26T19:04:02.198Z,99753.56
2023-03-26T19:06:31.063Z,99759.78
2023-03-26T19:09:01.386Z,99760.38
2023-03-26T19:11:30.278Z,99780.56
2023-03-26T19:14:04.119Z,99764.25
2023-03-26T19:16:36.487Z,99782.00
2023-03-26T19:19:06.771Z,99794.56
2023-03-26T19:21:35.752Z,99795.28
2023-03-26T19:24:05.996Z,99797.56
2023-03-26T19:26:34.087Z,99814.38
2023-03-26T19:29:01.911Z,99813.34
2023-03-26T19:31:34.285Z,99816.81
2023-03-26T19:34:05.020Z,99827.16
2023-03-26T19:36:34.611Z,99837.72
2023-03-26T19:39:13.116Z,99844.31
2023-03-26T19:41:42.776Z,99860.03
2023-03-26T19:44:21.587Z,99853.13
2023-03-26T19:46:53.246Z,99862.19
2023-03-26T19:49:29.730Z,99857.13
2023-03-26T19:52:08.811Z,99864.19
2023-03-26T19:55:00.108Z,99868.28
2023-03-26T19:57:30.238Z,99875.91
2023-03-26T19:59:58.417Z,99876.03
2023-03-26T20:02:26.343Z,99880.69
2023-03-26T20:04:54.559Z,99879.81
2023-03-26T20:07:35.363Z,99891.09
2023-03-26T20:10:05.981Z,99887.41
2023-03-26T20:12:33.853Z,99894.59
2023-03-26T20:15:01.946Z,99911.97
2023-03-26T20:17:30.938Z,99913.63
2023-03-26T20:19:59.661Z,99908.78
2023-03-26T20:22:27.410Z,99914.47
2023-03-26T20:24:55.321Z,99915.72
2023-03-26T20:27:24.397Z,99921.03
2023-03-26T20:29:52.155Z,99916.19
2023-03-26T20:32:26.373Z,99924.06
2023-03-26T20:34:55.396Z,99924.66
2023-03-26T20:37:23.091Z,99938.50
2023-03-26T20:39:50.766Z,99932.31
2023-03-26T20:42:18.443Z,99940.16
2023-03-26T20:44:47.472Z,99937.59
2023-03-26T20:47:15.774Z,99959.66
2023-03-26T20:49:43.545Z,99961.22
2023-03-26T20:52:15.517Z,99958.22
2023-03-26T20:54:43.610Z,99969.09
2023-03-26T20:57:13.296Z,99963.75
2023-03-26T20:59:42.051Z,99973.91
2023-03-26T21:02:13.438Z,99963.16
2023-03-26T21:04:41.671Z,99968.91
2023-03-26T21:07:17.739Z,99977.53
2023-03-26T21:09:47.165Z,99975.69
2023-03-26T21:12:18.952Z,99995.88
2023-03-26T21:14:47.271Z,99985.09
2023-03-26T21:17:18.272Z,100001.78
2023-03-26T21:19:47.125Z,100004.78
2023-03-26T21:22:25.707Z,100018.16
2023-03-26T21:25:02.661Z,100017.00
2023-03-26T21:27:33.827Z,100006.09
2023-03-26T21:30:01.918Z,100024.75
2023-03-26T21:32:32.326Z,100034.19
2023-03-26T21:35:00.740Z,100031.47
2023-03-26T21:37:29.158Z,100037.38
2023-03-26T21:39:57.602Z,100040.50
2023-03-26T21:42:29.340Z,100043.41
2023-03-26T21:44:57.566Z,100061.69
2023-03-26T21:47:25.759Z,100057.53
2023-03-26T21:49:55.436Z,100068.47
2023-03-26T21:52:23.901Z,100064.66
2023-03-26T21:54:52.563Z,100062.03
2023-03-26T21:57:35.091Z,100085.47
2023-03-26T22:00:14.886Z,100083.81
2023-03-26T22:02:50.720Z,100088.94
2023-03-26T22:05:22.269Z,100090.38
2023-03-26T22:07:54.371Z,100091.59
2023-03-26T22:10:22.198Z,100095.13
2023-03-26T22:12:49.954Z,100096.53
2023-03-26T22:15:20.139Z,100097.34
2023-03-26T22:17:54.376Z,100101.06
2023-03-26T22:20:25.192Z,100111.50
2023-03-26T22:22:55.293Z,100108.84
2023-03-26T22:25:23.644Z,100117.84
2023-03-26T22:27:52.706Z,100118.69
2023-03-26T22:30:21.919Z,100128.94
2023-03-26T22:32:50.168Z,100129.75
2023-03-26T22:35:18.371Z,100137.88
2023-03-26T22:37:47.464Z,100132.59
2023-03-26T22:40:15.196Z,100129.31
2023-03-26T22:42:42.924Z,100133.88
2023-03-26T22:45:11.890Z,100149.38
2023-03-26T22:47:40.214Z,100149.00
2023-03-26T22:50:09.590Z,100151.50
2023-03-26T22:52:37.569Z,100160.09
2023-03-26T22:55:07.357Z,100165.03
2023-03-26T22:57:35.108Z,100168.72
2023-03-26T23:00:13.124Z,100175.88
2023-03-26T23:02:40.866Z,100170.53
2023-03-26T23:05:09.314Z,100180.19
2023-03-26T23:07:37.384Z,100173.47
2023-03-26T23:10:09.111Z,100179.78
2023-03-26T23:12:36.805Z,100185.16
2023-03-26T23:15:05.328Z,100190.00
2023-03-26T23:17:35.296Z,100213.25
2023-03-26T23:20:06.193Z,100216.34
2023-03-26T23:22:35.340Z,100212.47
2023-03-26T23:25:03.306Z,100225.09
2023-03-26T23:27:32.934Z,100224.84
2023-03-26T23:30:01.367Z,100235.63
2023-03-26T23:32:29.141Z,100232.34
2023-03-26T23:34:57.024Z,100240.53
2023-03-26T23:37:24.804Z,100241.84
2023-03-26T23:39:53.143Z,100236.66
2023-03-26T23:42:28.572Z,100243.06
2023-03-26T23:44:59.074Z,100262.16
2023-03-26T23:47:27.133Z,100247.34
2023-03-26T23:49:54.812Z,100245.00
2023-03-26T23:52:22.526Z,100265.81
2023-03-26T23:54:50.160Z,100270.44
2023-03-26T23:57:18.543Z,100273.81
2023-03-26T23:59:46.223Z,100272.28
